Time;durP1;ratioP1;P1;durP2;ratioP2;P2;SDS_P1;SDS_P2;PMS_P1;PMS_P2;Temp;Humidity;BMP_temperature;BMP_pressure;BME280_temperature;BME280_humidity;BME280_pressure;Samples;Min_cycle;Max_cycle;Signal;HPM_P1;HPM_P2
2021/08/15 00:00:21;;;;;;;11.60;9.30;;;24.10;99.90;;;;;;5056204;28;20213;-57
2021/08/15 00:02:47;;;;;;;9.70;8.87;;;24.00;99.90;;;;;;5043950;28;20429;-57
2021/08/15 00:05:13;;;;;;;9.97;8.97;;;24.00;99.90;;;;;;5036238;28;20167;-56
2021/08/15 00:07:39;;;;;;;9.57;8.60;;;24.00;99.90;;;;;;5035790;28;20453;-57
2021/08/15 00:10:06;;;;;;;11.30;10.20;;;24.00;99.90;;;;;;5035912;28;20246;-57
2021/08/15 00:12:32;;;;;;;10.43;9.33;;;24.00;99.90;;;;;;5035916;28;20413;-55
2021/08/15 00:14:57;;;;;;;10.00;9.10;;;23.90;99.90;;;;;;5035717;28;20402;-57
2021/08/15 00:17:23;;;;;;;9.47;8.67;;;23.90;99.90;;;;;;5044699;28;20256;-58
2021/08/15 00:19:49;;;;;;;10.00;9.10;;;23.70;99.90;;;;;;5055962;28;20642;-58
2021/08/15 00:22:14;;;;;;;9.80;8.90;;;23.60;99.90;;;;;;5055854;28;20182;-55
2021/08/15 00:24:40;;;;;;;9.27;8.37;;;23.50;99.90;;;;;;5055602;28;20586;-56
2021/08/15 00:27:05;;;;;;;12.33;8.80;;;23.40;99.90;;;;;;5055330;28;20190;-58
2021/08/15 00:29:31;;;;;;;10.97;9.83;;;23.30;99.90;;;;;;5055483;28;20163;-58
2021/08/15 00:31:57;;;;;;;11.30;10.17;;;23.40;99.90;;;;;;5055133;28;20216;-57
2021/08/15 00:34:23;;;;;;;10.30;9.40;;;23.50;99.90;;;;;;5055435;28;20163;-58
2021/08/15 00:36:48;;;;;;;12.47;9.87;;;23.50;99.90;;;;;;5055239;28;20417;-58
2021/08/15 00:39:14;;;;;;;10.53;9.63;;;23.50;99.90;;;;;;5055241;28;20170;-58
2021/08/15 00:41:39;;;;;;;12.10;10.87;;;23.50;99.90;;;;;;5055593;28;20171;-58
2021/08/15 00:44:06;;;;;;;11.00;10.00;;;23.50;99.90;;;;;;5043142;28;20171;-55
2021/08/15 00:46:32;;;;;;;12.60;9.37;;;23.40;99.90;;;;;;5036890;28;20671;-57
2021/08/15 00:48:58;;;;;;;11.97;10.73;;;23.40;99.90;;;;;;5055555;28;20602;-57
2021/08/15 00:51:24;;;;;;;8.87;8.03;;;23.30;99.90;;;;;;5055132;28;20420;-58
2021/08/15 00:53:49;;;;;;;9.70;8.80;;;23.30;99.90;;;;;;5055323;28;20405;-57
2021/08/15 00:56:15;;;;;;;11.73;10.70;;;23.10;99.90;;;;;;5055178;28;20170;-57
2021/08/15 00:58:41;;;;;;;10.97;9.97;;;23.10;99.90;;;;;;5054762;28;20250;-58
2021/08/15 01:01:07;;;;;;;10.90;9.90;;;23.10;99.90;;;;;;5055213;28;20171;-57
2021/08/15 01:03:33;;;;;;;10.50;9.40;;;23.10;99.90;;;;;;5054598;28;20298;-58
2021/08/15 01:05:59;;;;;;;10.20;9.30;;;23.20;99.90;;;;;;5054722;28;20490;-58
2021/08/15 01:08:26;;;;;;;10.37;9.43;;;23.20;99.90;;;;;;5054587;28;20488;-57
2021/08/15 01:10:52;;;;;;;10.80;9.80;;;23.20;99.90;;;;;;5054803;28;20579;-56
2021/08/15 01:13:17;;;;;;;10.27;9.37;;;23.20;99.90;;;;;;5054576;28;20455;-57
2021/08/15 01:15:43;;;;;;;10.03;8.53;;;23.20;99.90;;;;;;5054862;28;20175;-54
2021/08/15 01:18:29;;;;;;;10.73;8.93;;;23.20;99.90;;;;;;5036364;28;20191;-54
2021/08/15 01:21:10;;;;;;;10.47;9.57;;;23.10;99.90;;;;;;5055110;28;20236;-57
2021/08/15 01:23:41;;;;;;;10.20;9.30;;;23.00;99.90;;;;;;5054448;28;20413;-57
2021/08/15 01:26:08;;;;;;;10.90;9.90;;;23.10;99.90;;;;;;5054435;28;20388;-54
2021/08/15 01:28:34;;;;;;;9.80;9.00;;;23.00;99.90;;;;;;5053978;28;20456;-56
2021/08/15 01:30:59;;;;;;;11.67;10.67;;;22.90;99.90;;;;;;5054333;28;20393;-57
2021/08/15 01:33:31;;;;;;;11.40;10.40;;;22.80;99.90;;;;;;5054040;28;20455;-51
2021/08/15 01:35:58;;;;;;;11.10;10.10;;;22.90;99.90;;;;;;5054226;28;20640;-56
2021/08/15 01:38:25;;;;;;;10.90;9.90;;;22.80;99.90;;;;;;5054105;28;20428;-55
2021/08/15 01:40:51;;;;;;;12.13;11.03;;;22.80;99.90;;;;;;5054390;28;20777;-56
2021/08/15 01:43:17;;;;;;;11.03;10.03;;;22.60;99.90;;;;;;5053873;28;20475;-56
2021/08/15 01:45:43;;;;;;;10.97;9.90;;;22.70;99.90;;;;;;5053978;28;20811;-56
2021/08/15 01:48:09;;;;;;;10.73;9.73;;;22.60;99.90;;;;;;5053425;28;20199;-55
2021/08/15 01:50:35;;;;;;;11.27;10.03;;;22.70;99.90;;;;;;5054237;28;20507;-57
2021/08/15 01:53:01;;;;;;;12.00;10.90;;;22.70;99.90;;;;;;5053886;28;20167;-56
2021/08/15 01:55:27;;;;;;;11.20;10.20;;;22.70;99.90;;;;;;5053827;28;20404;-55
2021/08/15 01:57:52;;;;;;;11.80;10.60;;;22.80;99.90;;;;;;5053780;28;20425;-56
2021/08/15 02:00:18;;;;;;;11.77;10.67;;;22.70;99.90;;;;;;5054102;28;20636;-56
2021/08/15 02:02:44;;;;;;;13.97;12.60;;;22.70;99.90;;;;;;5053721;28;20174;-55
2021/08/15 02:05:18;;;;;;;12.87;10.37;;;22.70;99.90;;;;;;5053982;28;20166;-57
2021/08/15 02:07:44;;;;;;;11.60;10.60;;;22.60;99.90;;;;;;5053672;28;20461;-55
2021/08/15 02:10:10;;;;;;;11.40;10.20;;;22.60;99.90;;;;;;5052342;28;20432;-55
2021/08/15 02:12:35;;;;;;;11.47;10.57;;;22.50;99.90;;;;;;5035567;28;20163;-54
2021/08/15 02:15:01;;;;;;;12.37;10.73;;;22.30;99.90;;;;;;5033607;28;20472;-57
2021/08/15 02:17:26;;;;;;;13.20;12.00;;;22.20;99.90;;;;;;5042262;28;20226;-55
2021/08/15 02:19:52;;;;;;;11.90;10.60;;;22.30;99.90;;;;;;5053409;28;20697;-57
2021/08/15 02:22:17;;;;;;;12.00;11.00;;;22.30;99.90;;;;;;5053403;28;20175;-56
2021/08/15 02:24:43;;;;;;;12.73;10.70;;;22.40;99.90;;;;;;5053316;28;20175;-53
2021/08/15 02:27:08;;;;;;;10.70;9.70;;;22.40;99.90;;;;;;5053201;28;20675;-55
2021/08/15 02:29:34;;;;;;;11.40;10.40;;;22.40;99.90;;;;;;5053940;28;20174;-55
2021/08/15 02:32:00;;;;;;;15.30;11.47;;;22.30;99.90;;;;;;5053569;28;20185;-53
2021/08/15 02:34:27;;;;;;;11.20;10.10;;;22.30;99.90;;;;;;5053828;28;20158;-54
2021/08/15 02:36:53;;;;;;;12.97;11.87;;;22.30;99.90;;;;;;5053472;28;20198;-58
2021/08/15 02:39:18;;;;;;;11.00;10.00;;;22.30;99.90;;;;;;5053704;28;20409;-55
2021/08/15 02:41:44;;;;;;;12.00;11.00;;;22.40;99.90;;;;;;5053929;28;20185;-56
2021/08/15 02:44:10;;;;;;;12.43;11.30;;;22.30;99.90;;;;;;5052875;28;20170;-50
2021/08/15 02:46:35;;;;;;;11.60;10.60;;;22.30;99.90;;;;;;5052909;28;20260;-54
2021/08/15 02:49:01;;;;;;;12.43;11.27;;;22.30;99.90;;;;;;5052862;28;20273;-56
2021/08/15 02:51:26;;;;;;;12.80;11.70;;;22.30;99.90;;;;;;5053332;28;20163;-52
2021/08/15 02:53:53;;;;;;;11.83;10.70;;;22.30;99.90;;;;;;5053099;28;20194;-53
2021/08/15 02:56:19;;;;;;;11.17;10.17;;;22.30;99.90;;;;;;5053252;28;20171;-52
2021/08/15 02:58:44;;;;;;;11.90;10.80;;;22.30;99.90;;;;;;5051557;28;20425;-53
2021/08/15 03:01:10;;;;;;;12.37;11.27;;;22.30;99.90;;;;;;5053003;28;20586;-55
2021/08/15 03:03:36;;;;;;;10.63;9.73;;;22.20;99.90;;;;;;5052785;28;20598;-55
2021/08/15 03:06:02;;;;;;;12.23;11.13;;;22.20;99.90;;;;;;5035953;28;20170;-54
2021/08/15 03:08:28;;;;;;;11.40;10.40;;;22.10;99.90;;;;;;5053545;28;20869;-53
2021/08/15 03:10:53;;;;;;;11.07;10.07;;;22.10;99.90;;;;;;5053426;28;20163;-52
2021/08/15 03:13:19;;;;;;;13.27;11.97;;;22.10;99.90;;;;;;5053683;28;20162;-52
2021/08/15 03:15:44;;;;;;;12.70;11.70;;;22.00;99.90;;;;;;5054238;28;20241;-55
2021/08/15 03:18:13;;;;;;;12.43;11.20;;;21.90;99.90;;;;;;5053411;28;20693;-56
2021/08/15 03:20:38;;;;;;;11.70;10.50;;;22.00;99.90;;;;;;5053777;28;20175;-56
2021/08/15 03:23:04;;;;;;;17.00;11.93;;;21.80;99.90;;;;;;5053853;28;20977;-55
2021/08/15 03:25:29;;;;;;;11.90;10.80;;;21.80;99.90;;;;;;5053567;28;20171;-57
2021/08/15 03:27:55;;;;;;;12.83;11.83;;;21.80;99.90;;;;;;5053798;28;20293;-58
2021/08/15 03:30:21;;;;;;;11.77;10.77;;;21.70;99.90;;;;;;5056155;28;20182;-57
2021/08/15 03:32:46;;;;;;;11.40;10.30;;;21.80;99.90;;;;;;5056531;28;20167;-56
2021/08/15 03:35:12;;;;;;;11.70;10.67;;;21.80;99.90;;;;;;5056568;28;20241;-57
2021/08/15 03:37:37;;;;;;;12.67;11.57;;;21.70;99.90;;;;;;5038517;28;20676;-57
2021/08/15 03:40:03;;;;;;;13.50;12.20;;;21.70;99.90;;;;;;5036722;28;20595;-57
2021/08/15 03:42:29;;;;;;;11.70;10.50;;;21.80;99.90;;;;;;5036690;28;20729;-57
2021/08/15 03:44:54;;;;;;;12.77;11.50;;;21.80;99.90;;;;;;5036450;28;20440;-55
2021/08/15 03:47:20;;;;;;;13.37;12.10;;;21.80;99.90;;;;;;5035855;28;20238;-56
2021/08/15 03:49:46;;;;;;;11.90;10.83;;;21.70;99.90;;;;;;5036641;28;20191;-58
2021/08/15 03:52:11;;;;;;;12.03;10.70;;;21.70;99.90;;;;;;5036282;28;20724;-58
2021/08/15 03:54:37;;;;;;;12.33;11.20;;;21.80;99.90;;;;;;5036211;28;20175;-58
2021/08/15 03:57:03;;;;;;;13.20;11.90;;;21.70;99.90;;;;;;5036629;28;20219;-58
2021/08/15 03:59:28;;;;;;;11.43;10.47;;;21.80;99.90;;;;;;5048316;28;20179;-57
2021/08/15 04:01:54;;;;;;;12.23;11.00;;;21.80;99.90;;;;;;5056324;28;20173;-58
2021/08/15 04:04:19;;;;;;;11.73;10.50;;;21.90;99.90;;;;;;5055834;28;20240;-54
2021/08/15 04:06:45;;;;;;;13.27;12.03;;;21.80;99.90;;;;;;5054189;28;20316;-57
2021/08/15 04:09:11;;;;;;;12.93;11.80;;;21.80;99.90;;;;;;5037705;28;20237;-57
2021/08/15 04:11:37;;;;;;;12.40;11.20;;;21.70;99.90;;;;;;5036199;28;20640;-56
2021/08/15 04:14:02;;;;;;;12.03;10.97;;;21.50;99.90;;;;;;5035615;28;20487;-56
2021/08/15 04:16:28;;;;;;;14.37;10.73;;;21.50;99.90;;;;;;5036013;28;20191;-56
2021/08/15 04:18:55;;;;;;;13.43;11.50;;;21.40;99.90;;;;;;5035776;28;20233;-58
2021/08/15 04:21:20;;;;;;;12.13;10.93;;;21.40;99.90;;;;;;5036107;28;20164;-58
2021/08/15 04:23:46;;;;;;;11.20;10.20;;;21.40;99.90;;;;;;5035745;28;20479;-58
2021/08/15 04:26:12;;;;;;;12.20;11.00;;;21.50;99.90;;;;;;5035844;28;20167;-58
2021/08/15 04:28:37;;;;;;;12.20;11.00;;;21.50;99.90;;;;;;5040649;28;20247;-58
2021/08/15 04:31:03;;;;;;;12.07;11.00;;;21.40;99.90;;;;;;5056065;28;20167;-56
2021/08/15 04:33:28;;;;;;;11.77;10.70;;;21.30;99.90;;;;;;5055430;28;20257;-58
2021/08/15 04:35:54;;;;;;;11.70;10.60;;;21.30;99.90;;;;;;5055640;28;20169;-58
2021/08/15 04:38:25;;;;;;;12.57;11.50;;;21.30;99.90;;;;;;5055547;28;20187;-58
2021/08/15 04:40:50;;;;;;;12.00;10.70;;;21.40;99.90;;;;;;5055376;28;20173;-56
2021/08/15 04:43:20;;;;;;;11.00;9.90;;;21.50;99.90;;;;;;5055004;28;20472;-57
2021/08/15 04:45:46;;;;;;;12.47;11.30;;;21.60;99.90;;;;;;5055444;28;20432;-58
2021/08/15 04:48:12;;;;;;;11.33;10.17;;;21.60;99.90;;;;;;5054687;28;20464;-58
2021/08/15 04:50:38;;;;;;;11.57;10.47;;;21.60;99.90;;;;;;5055143;28;20401;-58
2021/08/15 04:53:04;;;;;;;12.70;11.50;;;21.70;99.90;;;;;;5055034;28;20406;-58
2021/08/15 04:55:29;;;;;;;12.37;11.27;;;21.70;99.90;;;;;;5055633;28;20245;-58
2021/08/15 04:57:55;;;;;;;12.27;11.07;;;21.70;99.90;;;;;;5054976;28;20610;-58
2021/08/15 05:00:20;;;;;;;12.23;10.90;;;21.80;99.90;;;;;;5054927;28;20682;-57
2021/08/15 05:02:46;;;;;;;12.37;11.17;;;21.90;99.90;;;;;;5054636;28;20166;-58
2021/08/15 05:05:12;;;;;;;12.03;10.93;;;22.00;99.90;;;;;;5054897;28;20173;-56
2021/08/15 05:07:37;;;;;;;11.43;10.40;;;22.10;99.90;;;;;;5054935;28;20277;-56
2021/08/15 05:10:04;;;;;;;13.67;11.93;;;22.10;99.90;;;;;;5054992;28;20171;-58
2021/08/15 05:12:29;;;;;;;12.17;11.03;;;22.00;99.90;;;;;;5054845;28;20174;-57
2021/08/15 05:14:55;;;;;;;13.00;11.90;;;22.00;99.90;;;;;;5054525;28;20401;-58
2021/08/15 05:17:21;;;;;;;14.17;12.87;;;22.10;99.90;;;;;;5054545;28;20274;-58
2021/08/15 05:19:46;;;;;;;11.70;10.50;;;22.10;99.90;;;;;;5054916;28;20710;-58
2021/08/15 05:22:12;;;;;;;13.03;11.83;;;22.10;99.90;;;;;;5054576;28;20578;-58
2021/08/15 05:24:37;;;;;;;13.27;12.00;;;22.10;99.90;;;;;;5054742;28;20166;-58
2021/08/15 05:27:03;;;;;;;12.40;11.20;;;22.10;99.90;;;;;;5054622;28;20202;-57
2021/08/15 05:29:29;;;;;;;12.13;11.03;;;22.00;99.90;;;;;;5054167;28;20201;-58
2021/08/15 05:31:54;;;;;;;12.03;10.97;;;22.10;99.90;;;;;;5054332;28;20166;-58
2021/08/15 05:34:20;;;;;;;12.50;11.30;;;22.10;99.90;;;;;;5054027;28;20159;-56
2021/08/15 05:36:45;;;;;;;13.03;11.77;;;22.20;99.90;;;;;;5054559;28;20183;-58
2021/08/15 05:39:11;;;;;;;13.57;12.27;;;22.20;99.90;;;;;;5054244;28;20202;-58
2021/08/15 05:41:36;;;;;;;12.40;11.20;;;22.30;99.90;;;;;;5054476;28;20167;-58
2021/08/15 05:44:02;;;;;;;12.07;10.97;;;22.30;99.90;;;;;;5053869;28;20252;-58
2021/08/15 05:49:02;;;;;;;13.67;12.37;;;22.40;99.90;;;;;;5054851;22;20281;-53
2021/08/15 05:51:28;;;;;;;12.20;11.10;;;22.50;99.90;;;;;;5033487;28;20402;-55
2021/08/15 05:53:53;;;;;;;12.77;10.97;;;22.60;99.90;;;;;;5034477;28;20624;-53
2021/08/15 05:56:19;;;;;;;11.73;10.70;;;22.80;99.90;;;;;;5034262;28;20177;-57
2021/08/15 05:58:45;;;;;;;12.70;11.50;;;22.80;99.90;;;;;;5033847;28;20199;-55
2021/08/15 06:01:10;;;;;;;11.30;10.20;;;22.80;99.90;;;;;;5034165;28;20176;-56
2021/08/15 06:03:36;;;;;;;12.20;11.07;;;22.90;99.90;;;;;;5034178;28;20640;-52
2021/08/15 06:06:02;;;;;;;11.63;10.50;;;23.00;99.90;;;;;;5034257;28;20179;-56
2021/08/15 06:08:28;;;;;;;12.50;11.27;;;23.10;99.90;;;;;;5034420;28;20198;-56
2021/08/15 06:10:54;;;;;;;12.40;11.30;;;23.20;99.90;;;;;;5034829;28;20769;-56
2021/08/15 06:13:20;;;;;;;15.70;11.70;;;23.40;99.90;;;;;;5035011;28;20160;-55
2021/08/15 06:15:45;;;;;;;12.80;11.67;;;23.40;99.90;;;;;;5037405;28;20417;-57
2021/08/15 06:18:11;;;;;;;12.50;11.40;;;23.60;99.90;;;;;;5034158;28;20203;-56
2021/08/15 06:20:36;;;;;;;13.00;11.90;;;23.70;99.90;;;;;;5034405;28;20583;-55
2021/08/15 06:23:02;;;;;;;11.63;10.63;;;23.80;99.90;;;;;;5034495;28;20203;-56
2021/08/15 06:25:28;;;;;;;12.80;11.57;;;23.90;99.90;;;;;;5034409;28;20210;-56
2021/08/15 06:27:53;;;;;;;11.57;10.37;;;24.00;99.90;;;;;;5034203;28;20278;-57
2021/08/15 06:30:21;;;;;;;12.80;11.60;;;24.10;99.90;;;;;;5032284;28;20178;-57
2021/08/15 06:32:55;;;;;;;12.20;11.10;;;24.20;99.90;;;;;;5033527;28;20597;-55
2021/08/15 06:35:23;;;;;;;12.00;11.00;;;24.30;99.90;;;;;;5033412;28;20449;-56
2021/08/15 06:37:52;;;;;;;13.13;11.93;;;24.30;99.90;;;;;;5033349;28;20509;-56
2021/08/15 06:40:17;;;;;;;13.57;12.37;;;24.40;99.90;;;;;;5033791;28;20763;-55
2021/08/15 06:42:44;;;;;;;12.33;11.33;;;24.50;99.90;;;;;;5033668;28;20500;-56
2021/08/15 06:45:10;;;;;;;12.50;11.30;;;24.50;99.90;;;;;;5033153;28;20171;-53
2021/08/15 06:47:36;;;;;;;13.60;12.50;;;24.50;99.90;;;;;;5032680;28;20568;-56
2021/08/15 06:50:04;;;;;;;12.20;11.10;;;24.60;99.90;;;;;;5033242;28;20413;-56
2021/08/15 06:52:30;;;;;;;11.20;10.23;;;24.80;99.90;;;;;;5033451;28;20430;-57
2021/08/15 06:55:00;;;;;;;13.20;12.00;;;24.90;99.90;;;;;;5033185;28;20398;-56
2021/08/15 06:57:26;;;;;;;11.97;10.87;;;24.90;99.90;;;;;;5033011;28;20465;-56
2021/08/15 06:59:52;;;;;;;14.30;12.90;;;25.00;99.90;;;;;;5033067;28;20418;-56
2021/08/15 07:02:18;;;;;;;12.97;11.77;;;25.00;99.90;;;;;;5033387;28;20398;-57
2021/08/15 07:04:43;;;;;;;12.47;11.37;;;25.00;99.90;;;;;;5036974;28;20404;-57
2021/08/15 07:07:10;;;;;;;14.40;13.10;;;24.90;99.90;;;;;;5037303;28;20185;-56
2021/08/15 07:09:35;;;;;;;13.40;12.30;;;24.70;99.90;;;;;;5037284;28;20205;-57
2021/08/15 07:12:01;;;;;;;14.63;13.30;;;24.80;99.90;;;;;;5037276;28;20493;-57
2021/08/15 07:14:28;;;;;;;16.63;15.10;;;25.00;99.90;;;;;;5037341;28;20171;-56
2021/08/15 07:16:56;;;;;;;15.23;13.60;;;24.90;99.90;;;;;;5037209;28;20163;-57
2021/08/15 07:19:22;;;;;;;15.70;14.27;;;25.00;99.90;;;;;;5037171;28;20894;-55
2021/08/15 07:21:48;;;;;;;14.70;13.17;;;25.00;99.90;;;;;;5036755;28;20402;-56
2021/08/15 07:24:13;;;;;;;15.57;13.97;;;25.00;99.90;;;;;;5034874;28;20942;-56
2021/08/15 07:26:39;;;;;;;16.10;14.57;;;24.80;99.90;;;;;;5035048;28;20652;-56
2021/08/15 07:29:05;;;;;;;16.07;14.47;;;24.90;99.90;;;;;;5036420;28;20543;-57
2021/08/15 07:31:30;;;;;;;16.20;14.67;;;24.80;99.90;;;;;;5036725;28;20228;-57
2021/08/15 07:33:56;;;;;;;14.73;13.50;;;25.00;99.90;;;;;;5036524;28;20171;-55
2021/08/15 07:36:22;;;;;;;14.63;13.30;;;25.30;99.90;;;;;;5036827;28;20168;-57
2021/08/15 07:38:47;;;;;;;16.40;13.90;;;25.60;99.90;;;;;;5036403;28;20187;-56
2021/08/15 07:41:13;;;;;;;13.50;12.30;;;25.70;99.90;;;;;;5036487;28;20203;-55
2021/08/15 07:43:38;;;;;;;15.40;13.83;;;25.70;99.90;;;;;;5036813;28;20159;-57
2021/08/15 07:46:04;;;;;;;17.13;15.53;;;25.60;99.90;;;;;;5036362;28;20176;-57
2021/08/15 07:48:30;;;;;;;15.23;14.03;;;25.30;99.90;;;;;;5035937;28;20326;-57
2021/08/15 07:50:55;;;;;;;17.67;15.80;;;25.20;99.90;;;;;;5036580;28;20168;-57
2021/08/15 07:53:23;;;;;;;16.60;14.90;;;25.20;99.90;;;;;;5036171;28;20177;-53
2021/08/15 07:55:51;;;;;;;17.30;15.60;;;25.50;99.90;;;;;;5036520;28;20238;-57
2021/08/15 07:58:18;;;;;;;15.30;14.00;;;25.60;99.90;;;;;;5036428;28;20422;-56
2021/08/15 08:00:44;;;;;;;16.97;15.23;;;25.50;99.90;;;;;;5036225;28;20417;-56
2021/08/15 08:03:10;;;;;;;15.37;14.07;;;25.50;99.90;;;;;;5036065;28;20402;-57
2021/08/15 08:05:36;;;;;;;14.07;12.87;;;25.70;99.90;;;;;;5036169;28;20406;-55
2021/08/15 08:08:01;;;;;;;15.93;13.73;;;25.90;99.90;;;;;;5035911;28;20469;-56
2021/08/15 08:10:27;;;;;;;14.77;13.47;;;26.00;99.90;;;;;;5035676;28;20177;-55
2021/08/15 08:12:53;;;;;;;15.00;13.70;;;25.90;99.90;;;;;;5038575;28;20202;-55
2021/08/15 08:15:19;;;;;;;15.10;13.70;;;25.80;99.90;;;;;;5035317;28;20221;-56
2021/08/15 08:17:44;;;;;;;16.60;15.20;;;25.80;99.90;;;;;;5036045;28;20195;-54
2021/08/15 08:20:12;;;;;;;15.47;13.97;;;25.90;99.90;;;;;;5035836;28;20175;-57
2021/08/15 08:22:38;;;;;;;18.00;15.20;;;26.10;99.90;;;;;;5036124;28;20301;-55
2021/08/15 08:25:04;;;;;;;15.30;14.00;;;26.20;99.90;;;;;;5035741;28;20501;-55
2021/08/15 08:27:29;;;;;;;15.57;14.10;;;26.20;99.90;;;;;;5035661;28;20214;-53
2021/08/15 08:29:55;;;;;;;14.43;13.03;;;26.30;99.90;;;;;;5036154;28;20402;-55
2021/08/15 08:32:20;;;;;;;14.03;12.70;;;26.50;99.90;;;;;;5035343;28;20169;-55
2021/08/15 08:34:46;;;;;;;14.70;13.40;;;26.60;99.90;;;;;;5035937;28;20617;-56
2021/08/15 08:37:12;;;;;;;14.40;13.00;;;26.70;99.90;;;;;;5035531;28;20187;-55
2021/08/15 08:39:37;;;;;;;15.13;13.63;;;26.70;99.90;;;;;;5035548;28;20684;-57
2021/08/15 08:42:04;;;;;;;13.83;12.43;;;26.60;99.90;;;;;;5035510;28;20180;-57
2021/08/15 08:44:33;;;;;;;14.33;13.00;;;26.80;99.90;;;;;;5036057;28;20174;-56
2021/08/15 08:47:04;;;;;;;15.73;14.23;;;26.90;99.90;;;;;;5035275;28;21053;-58
2021/08/15 08:49:29;;;;;;;14.77;13.27;;;26.90;99.90;;;;;;5035442;28;20504;-57
2021/08/15 08:51:56;;;;;;;14.67;13.37;;;27.00;99.90;;;;;;5035460;28;20819;-57
2021/08/15 08:54:22;;;;;;;14.13;12.83;;;27.10;99.90;;;;;;5035322;28;20179;-56
2021/08/15 08:56:48;;;;;;;14.23;12.93;;;27.30;99.90;;;;;;5035796;28;20425;-56
2021/08/15 08:59:14;;;;;;;15.70;14.20;;;27.30;99.90;;;;;;5035335;28;20406;-57
2021/08/15 09:01:41;;;;;;;14.67;13.33;;;27.10;99.90;;;;;;5035349;28;20172;-57
2021/08/15 09:04:07;;;;;;;13.27;12.17;;;27.30;99.90;;;;;;5035004;28;20168;-57
2021/08/15 09:06:33;;;;;;;14.90;13.60;;;27.50;99.90;;;;;;5035266;28;20414;-56
2021/08/15 09:09:18;;;;;;;15.07;12.60;;;27.80;99.90;;;;;;5034825;28;20457;-57
2021/08/15 09:11:49;;;;;;;14.00;12.77;;;27.80;99.90;;;;;;5035559;28;20263;-53
2021/08/15 09:14:17;;;;;;;14.00;12.60;;;27.60;99.90;;;;;;5035653;28;20469;-57
2021/08/15 09:17:00;;;;;;;14.80;13.43;;;27.80;99.90;;;;;;5035437;28;20429;-56
2021/08/15 09:19:27;;;;;;;13.37;12.23;;;28.10;99.90;;;;;;5035081;28;20382;-56
2021/08/15 09:21:56;;;;;;;14.70;13.40;;;28.10;99.90;;;;;;5034937;28;20406;-57
2021/08/15 09:24:21;;;;;;;13.80;12.60;;;27.90;99.90;;;;;;5034441;28;20493;-57
2021/08/15 09:26:58;;;;;;;13.23;12.07;;;28.00;99.90;;;;;;5034868;28;20406;-55
2021/08/15 09:29:24;;;;;;;14.20;12.90;;;28.40;99.90;;;;;;5035009;28;20186;-56
2021/08/15 09:31:50;;;;;;;13.47;12.20;;;28.50;99.90;;;;;;5016861;28;20476;-57
2021/08/15 09:34:29;;;;;;;15.60;14.10;;;28.60;99.90;;;;;;5034696;28;20402;-53
2021/08/15 09:36:55;;;;;;;14.97;13.53;;;28.70;99.90;;;;;;5034577;28;20922;-52
2021/08/15 09:39:35;;;;;;;13.60;12.23;;;28.70;99.90;;;;;;5034049;28;20968;-55
2021/08/15 09:42:01;;;;;;;13.90;12.60;;;28.90;99.90;;;;;;5034957;28;20390;-59
2021/08/15 09:44:31;;;;;;;13.33;12.23;;;29.10;99.90;;;;;;5034261;28;20398;-55
2021/08/15 09:47:07;;;;;;;13.13;12.03;;;29.30;99.90;;;;;;5034062;28;20402;-56
2021/08/15 09:49:34;;;;;;;13.70;12.60;;;29.60;99.90;;;;;;5033932;28;20441;-56
2021/08/15 09:52:00;;;;;;;13.53;12.17;;;29.90;99.90;;;;;;5034256;28;20399;-56
2021/08/15 09:54:26;;;;;;;12.67;11.50;;;29.80;99.90;;;;;;5033926;28;20414;-53
2021/08/15 09:56:52;;;;;;;13.13;11.87;;;30.10;99.90;;;;;;5034048;28;20399;-56
2021/08/15 09:59:22;;;;;;;13.40;12.27;;;30.20;99.90;;;;;;5034056;28;20409;-57
2021/08/15 10:01:54;;;;;;;14.57;13.17;;;30.20;99.90;;;;;;5034474;28;20171;-56
2021/08/15 10:04:21;;;;;;;13.43;12.23;;;30.20;99.90;;;;;;5033778;28;20417;-57
2021/08/15 10:06:52;;;;;;;12.97;11.87;;;30.10;99.90;;;;;;5033787;28;20437;-57
2021/08/15 10:09:22;;;;;;;12.87;11.73;;;30.10;99.90;;;;;;5033465;28;20587;-57
2021/08/15 10:11:48;;;;;;;12.30;11.07;;;30.30;99.90;;;;;;5036485;28;20406;-57
2021/08/15 10:14:15;;;;;;;12.27;11.17;;;30.50;99.90;;;;;;5033673;28;20902;-57
2021/08/15 10:17:04;;;;;;;11.97;11.07;;;30.30;99.90;;;;;;5033713;28;20402;-55
2021/08/15 10:19:37;;;;;;;12.43;11.30;;;30.40;99.90;;;;;;5031844;28;20418;-56
2021/08/15 10:22:04;;;;;;;10.47;9.33;;;30.80;99.90;;;;;;5033841;28;20402;-55
2021/08/15 10:24:48;;;;;;;11.40;10.40;;;30.90;99.90;;;;;;5033199;28;20865;-54
2021/08/15 10:27:41;;;;;;;11.63;10.63;;;30.80;99.90;;;;;;5033632;28;20785;-56
2021/08/15 10:30:12;;;;;;;11.07;10.17;;;31.10;99.90;;;;;;5033409;28;20455;-55
2021/08/15 10:32:38;;;;;;;11.03;10.13;;;31.30;99.90;;;;;;5033076;28;20941;-59
2021/08/15 10:35:04;;;;;;;10.13;9.23;;;31.50;99.90;;;;;;5033312;28;20413;-57
2021/08/15 10:37:36;;;;;;;12.97;11.27;;;31.40;99.90;;;;;;5033216;28;20422;-57
2021/08/15 10:40:03;;;;;;;12.27;9.60;;;31.60;99.90;;;;;;5033065;28;20195;-56
2021/08/15 10:42:44;;;;;;;10.47;9.47;;;31.70;99.90;;;;;;5033584;28;20485;-57
2021/08/15 10:45:15;;;;;;;10.43;9.43;;;31.60;99.90;;;;;;5015538;28;20414;-56
2021/08/15 10:47:41;;;;;;;11.77;10.53;;;31.80;99.90;;;;;;5033006;28;20452;-57
2021/08/15 10:50:09;;;;;;;11.63;10.47;;;31.90;99.90;;;;;;5033317;28;20407;-54
2021/08/15 10:52:42;;;;;;;12.67;10.83;;;32.40;99.40;;;;;;5033197;28;20629;-57
2021/08/15 10:55:17;;;;;;;10.60;9.60;;;32.70;99.90;;;;;;5032868;28;20753;-57
2021/08/15 10:57:54;;;;;;;12.07;10.97;;;32.70;99.00;;;;;;5033298;28;20424;-56
2021/08/15 11:00:29;;;;;;;11.27;10.23;;;33.20;98.60;;;;;;5033567;28;20387;-57
2021/08/15 11:03:21;;;;;;;10.70;9.70;;;33.00;97.80;;;;;;5033167;28;20991;-57
2021/08/15 11:05:47;;;;;;;11.03;9.87;;;32.30;98.50;;;;;;5020187;28;20422;-57
2021/08/15 11:08:32;;;;;;;11.13;10.13;;;32.10;99.90;;;;;;5033489;28;20934;-56
2021/08/15 11:11:09;;;;;;;10.90;9.90;;;31.90;99.70;;;;;;5032790;28;20398;-56
2021/08/15 11:13:36;;;;;;;14.00;10.03;;;31.50;99.90;;;;;;5033281;28;20378;-57
2021/08/15 11:16:27;;;;;;;10.93;9.93;;;31.50;99.90;;;;;;5032987;28;20413;-56
2021/08/15 11:19:07;;;;;;;10.57;9.67;;;31.70;99.90;;;;;;5032739;28;20430;-57
2021/08/15 11:22:01;;;;;;;11.03;9.93;;;32.90;98.60;;;;;;5032967;28;20410;-56
2021/08/15 11:24:27;;;;;;;11.10;10.20;;;34.80;95.40;;;;;;5031664;28;20409;-57
2021/08/15 11:26:54;;;;;;;12.00;11.00;;;35.70;94.30;;;;;;5032252;28;20425;-57
2021/08/15 11:29:21;;;;;;;12.77;10.50;;;35.00;94.20;;;;;;5033672;28;20559;-56
2021/08/15 11:31:48;;;;;;;10.97;10.00;;;34.00;95.20;;;;;;5032946;28;20878;-55
2021/08/15 11:34:13;;;;;;;11.03;10.13;;;33.20;97.00;;;;;;5032727;28;20438;-55
2021/08/15 11:36:39;;;;;;;11.30;10.30;;;32.80;97.20;;;;;;5032902;28;20434;-58
2021/08/15 11:39:06;;;;;;;11.47;10.37;;;32.30;98.30;;;;;;5032661;28;20164;-58
2021/08/15 11:41:33;;;;;;;12.00;11.00;;;31.70;99.20;;;;;;5033134;28;20216;-57
2021/08/15 11:43:59;;;;;;;14.13;11.33;;;31.30;99.50;;;;;;5032802;28;20413;-58
2021/08/15 11:46:25;;;;;;;13.67;11.47;;;31.40;99.90;;;;;;5032749;28;20414;-57
2021/08/15 11:48:50;;;;;;;13.10;10.93;;;31.40;99.90;;;;;;5066529;23;20281;-57
2021/08/15 11:51:16;;;;;;;12.60;11.23;;;30.90;99.90;;;;;;5036343;28;20189;-57
2021/08/15 11:53:47;;;;;;;11.57;10.20;;;30.40;99.90;;;;;;5036712;28;20250;-57
2021/08/15 11:56:15;;;;;;;11.80;10.70;;;30.40;99.90;;;;;;5036665;28;20156;-58
2021/08/15 11:58:44;;;;;;;12.50;11.20;;;30.20;99.90;;;;;;5039036;28;20856;-54
2021/08/15 12:01:10;;;;;;;12.80;11.60;;;30.00;99.90;;;;;;5042882;28;20765;-58
2021/08/15 12:03:36;;;;;;;13.87;12.73;;;30.10;99.90;;;;;;5036159;28;20536;-57
2021/08/15 12:06:04;;;;;;;13.60;12.17;;;30.10;99.90;;;;;;5036222;28;20167;-58
2021/08/15 12:08:43;;;;;;;12.53;11.00;;;30.00;99.90;;;;;;5019017;28;20449;-56
2021/08/15 12:11:32;;;;;;;12.50;11.30;;;29.70;99.90;;;;;;5036549;28;20394;-55
2021/08/15 12:14:07;;;;;;;13.57;12.27;;;29.20;99.90;;;;;;5046574;28;20414;-57
2021/08/15 12:16:33;;;;;;;12.20;11.20;;;28.80;99.90;;;;;;5056031;28;20404;-57
2021/08/15 12:19:00;;;;;;;14.20;12.90;;;28.50;99.90;;;;;;5047479;28;20451;-57
2021/08/15 12:21:37;;;;;;;13.53;12.27;;;28.40;99.90;;;;;;5036652;28;20414;-57
2021/08/15 12:24:16;;;;;;;16.33;13.57;;;28.50;99.90;;;;;;5036518;28;20390;-56
2021/08/15 12:27:03;;;;;;;12.97;11.80;;;28.50;99.90;;;;;;5037588;28;20420;-58
2021/08/15 12:29:31;;;;;;;14.23;12.93;;;28.40;99.90;;;;;;5055949;28;20445;-56
2021/08/15 12:32:06;;;;;;;14.33;13.00;;;28.00;99.90;;;;;;5056221;28;20412;-56